sensor_id;sensor_type;location;lat;lon;timestamp;P1;durP1;ratioP1;P2;durP2;ratioP2
13051;SDS011;6592;47.484;9.726;2022-09-17T00:01:26;4.90;;;2.85;;
13051;SDS011;6592;47.484;9.726;2022-09-17T00:03:57;4.30;;;2.47;;
13051;SDS011;6592;47.484;9.726;2022-09-17T00:06:30;4.03;;;2.30;;
13051;SDS011;6592;47.484;9.726;2022-09-17T00:09:00;4.47;;;2.42;;
13051;SDS011;6592;47.484;9.726;2022-09-17T00:11:29;5.22;;;2.20;;
13051;SDS011;6592;47.484;9.726;2022-09-17T00:14:02;5.88;;;2.58;;
13051;SDS011;6592;47.484;9.726;2022-09-17T00:16:33;5.60;;;2.40;;
13051;SDS011;6592;47.484;9.726;2022-09-17T00:19:05;4.10;;;2.17;;
13051;SDS011;6592;47.484;9.726;2022-09-17T00:21:35;4.35;;;2.20;;
13051;SDS011;6592;47.484;9.726;2022-09-17T00:24:04;3.85;;;2.13;;
13051;SDS011;6592;47.484;9.726;2022-09-17T00:26:34;4.95;;;1.80;;
13051;SDS011;6592;47.484;9.726;2022-09-17T00:29:04;3.53;;;1.70;;
13051;SDS011;6592;47.484;9.726;2022-09-17T00:31:32;5.60;;;1.83;;
13051;SDS011;6592;47.484;9.726;2022-09-17T00:34:02;4.70;;;1.73;;
13051;SDS011;6592;47.484;9.726;2022-09-17T00:36:33;5.63;;;1.70;;
13051;SDS011;6592;47.484;9.726;2022-09-17T00:39:02;4.68;;;1.77;;
13051;SDS011;6592;47.484;9.726;2022-09-17T00:41:32;4.03;;;1.48;;
13051;SDS011;6592;47.484;9.726;2022-09-17T00:47:04;3.85;;;1.33;;
13051;SDS011;6592;47.484;9.726;2022-09-17T00:49:38;3.13;;;1.50;;
13051;SDS011;6592;47.484;9.726;2022-09-17T00:52:07;2.63;;;1.50;;
13051;SDS011;6592;47.484;9.726;2022-09-17T00:54:40;3.63;;;1.42;;
13051;SDS011;6592;47.484;9.726;2022-09-17T00:57:12;3.03;;;1.50;;
13051;SDS011;6592;47.484;9.726;2022-09-17T00:59:41;2.15;;;1.35;;
13051;SDS011;6592;47.484;9.726;2022-09-17T01:02:11;4.85;;;1.90;;
13051;SDS011;6592;47.484;9.726;2022-09-17T01:04:39;4.40;;;1.20;;
13051;SDS011;6592;47.484;9.726;2022-09-17T01:07:10;4.40;;;1.30;;
13051;SDS011;6592;47.484;9.726;2022-09-17T01:09:46;3.15;;;1.10;;
13051;SDS011;6592;47.484;9.726;2022-09-17T01:12:23;2.53;;;1.20;;
13051;SDS011;6592;47.484;9.726;2022-09-17T01:15:05;4.35;;;1.13;;
13051;SDS011;6592;47.484;9.726;2022-09-17T01:17:47;3.13;;;1.35;;
13051;SDS011;6592;47.484;9.726;2022-09-17T01:20:35;2.78;;;1.20;;
13051;SDS011;6592;47.484;9.726;2022-09-17T01:23:42;3.60;;;1.45;;
13051;SDS011;6592;47.484;9.726;2022-09-17T01:26:33;2.85;;;1.05;;
13051;SDS011;6592;47.484;9.726;2022-09-17T01:29:23;2.58;;;1.08;;
13051;SDS011;6592;47.484;9.726;2022-09-17T01:32:06;2.25;;;1.20;;
13051;SDS011;6592;47.484;9.726;2022-09-17T01:34:40;2.78;;;1.40;;
13051;SDS011;6592;47.484;9.726;2022-09-17T01:37:13;3.78;;;1.40;;
13051;SDS011;6592;47.484;9.726;2022-09-17T01:39:47;3.40;;;1.40;;
13051;SDS011;6592;47.484;9.726;2022-09-17T01:42:23;2.33;;;0.90;;
13051;SDS011;6592;47.484;9.726;2022-09-17T01:44:54;1.95;;;1.00;;
13051;SDS011;6592;47.484;9.726;2022-09-17T01:47:29;4.15;;;1.13;;
13051;SDS011;6592;47.484;9.726;2022-09-17T01:50:02;2.42;;;1.00;;
13051;SDS011;6592;47.484;9.726;2022-09-17T01:52:35;2.28;;;1.10;;
13051;SDS011;6592;47.484;9.726;2022-09-17T01:55:07;1.92;;;1.02;;
13051;SDS011;6592;47.484;9.726;2022-09-17T01:57:39;4.03;;;1.15;;
13051;SDS011;6592;47.484;9.726;2022-09-17T02:00:11;3.75;;;1.20;;
13051;SDS011;6592;47.484;9.726;2022-09-17T02:02:44;4.97;;;1.30;;
13051;SDS011;6592;47.484;9.726;2022-09-17T02:05:17;2.63;;;1.10;;
13051;SDS011;6592;47.484;9.726;2022-09-17T02:07:49;2.50;;;1.30;;
13051;SDS011;6592;47.484;9.726;2022-09-17T02:10:22;2.17;;;0.80;;
13051;SDS011;6592;47.484;9.726;2022-09-17T02:12:55;2.17;;;1.00;;
13051;SDS011;6592;47.484;9.726;2022-09-17T02:15:28;2.00;;;1.00;;
13051;SDS011;6592;47.484;9.726;2022-09-17T02:18:04;1.85;;;1.00;;
13051;SDS011;6592;47.484;9.726;2022-09-17T02:20:37;3.13;;;1.00;;
13051;SDS011;6592;47.484;9.726;2022-09-17T02:23:11;2.05;;;0.80;;
13051;SDS011;6592;47.484;9.726;2022-09-17T02:25:46;2.55;;;0.90;;
13051;SDS011;6592;47.484;9.726;2022-09-17T02:28:19;1.60;;;0.70;;
13051;SDS011;6592;47.484;9.726;2022-09-17T02:30:53;1.35;;;0.60;;
13051;SDS011;6592;47.484;9.726;2022-09-17T02:33:22;2.42;;;0.93;;
13051;SDS011;6592;47.484;9.726;2022-09-17T02:35:52;2.88;;;0.85;;
13051;SDS011;6592;47.484;9.726;2022-09-17T02:38:21;2.00;;;0.80;;
13051;SDS011;6592;47.484;9.726;2022-09-17T02:40:53;2.80;;;0.90;;
13051;SDS011;6592;47.484;9.726;2022-09-17T02:43:32;1.75;;;0.70;;
13051;SDS011;6592;47.484;9.726;2022-09-17T02:46:10;2.53;;;0.70;;
13051;SDS011;6592;47.484;9.726;2022-09-17T02:49:03;1.20;;;0.68;;
13051;SDS011;6592;47.484;9.726;2022-09-17T02:51:52;2.78;;;0.70;;
13051;SDS011;6592;47.484;9.726;2022-09-17T02:54:30;2.00;;;0.80;;
13051;SDS011;6592;47.484;9.726;2022-09-17T02:57:06;1.92;;;0.70;;
13051;SDS011;6592;47.484;9.726;2022-09-17T02:59:42;1.88;;;0.80;;
13051;SDS011;6592;47.484;9.726;2022-09-17T03:02:16;2.25;;;0.77;;
13051;SDS011;6592;47.484;9.726;2022-09-17T03:04:50;1.55;;;0.70;;
13051;SDS011;6592;47.484;9.726;2022-09-17T03:09:49;1.55;;;0.60;;
13051;SDS011;6592;47.484;9.726;2022-09-17T03:12:17;1.42;;;0.85;;
13051;SDS011;6592;47.484;9.726;2022-09-17T03:14:45;2.70;;;1.00;;
13051;SDS011;6592;47.484;9.726;2022-09-17T03:17:14;2.28;;;1.20;;
13051;SDS011;6592;47.484;9.726;2022-09-17T03:19:42;2.70;;;1.13;;
13051;SDS011;6592;47.484;9.726;2022-09-17T03:22:11;3.17;;;1.17;;
13051;SDS011;6592;47.484;9.726;2022-09-17T03:24:40;2.75;;;1.05;;
13051;SDS011;6592;47.484;9.726;2022-09-17T03:27:08;2.53;;;1.00;;
13051;SDS011;6592;47.484;9.726;2022-09-17T03:29:36;2.70;;;1.08;;
13051;SDS011;6592;47.484;9.726;2022-09-17T03:32:04;3.05;;;1.00;;
13051;SDS011;6592;47.484;9.726;2022-09-17T03:34:33;3.75;;;1.10;;
13051;SDS011;6592;47.484;9.726;2022-09-17T03:37:02;3.17;;;1.25;;
13051;SDS011;6592;47.484;9.726;2022-09-17T03:39:31;3.63;;;1.20;;
13051;SDS011;6592;47.484;9.726;2022-09-17T03:41:59;2.13;;;0.93;;
13051;SDS011;6592;47.484;9.726;2022-09-17T03:44:28;2.78;;;1.10;;
13051;SDS011;6592;47.484;9.726;2022-09-17T03:46:56;2.78;;;1.05;;
13051;SDS011;6592;47.484;9.726;2022-09-17T03:49:24;3.40;;;1.10;;
13051;SDS011;6592;47.484;9.726;2022-09-17T03:51:52;2.58;;;1.20;;
13051;SDS011;6592;47.484;9.726;2022-09-17T03:54:20;4.32;;;1.50;;
13051;SDS011;6592;47.484;9.726;2022-09-17T03:56:50;3.50;;;1.45;;
13051;SDS011;6592;47.484;9.726;2022-09-17T03:59:18;3.38;;;1.50;;
13051;SDS011;6592;47.484;9.726;2022-09-17T04:01:46;2.63;;;1.40;;
13051;SDS011;6592;47.484;9.726;2022-09-17T04:04:15;3.65;;;1.27;;
13051;SDS011;6592;47.484;9.726;2022-09-17T04:06:43;3.08;;;1.40;;
13051;SDS011;6592;47.484;9.726;2022-09-17T04:09:11;6.95;;;1.52;;
13051;SDS011;6592;47.484;9.726;2022-09-17T04:11:39;3.13;;;1.23;;
13051;SDS011;6592;47.484;9.726;2022-09-17T04:14:09;2.47;;;1.20;;
13051;SDS011;6592;47.484;9.726;2022-09-17T04:16:37;5.53;;;1.33;;
13051;SDS011;6592;47.484;9.726;2022-09-17T04:19:06;6.30;;;2.28;;
13051;SDS011;6592;47.484;9.726;2022-09-17T04:21:34;2.63;;;1.50;;
13051;SDS011;6592;47.484;9.726;2022-09-17T04:24:03;3.13;;;1.50;;
13051;SDS011;6592;47.484;9.726;2022-09-17T04:26:31;2.60;;;1.52;;
13051;SDS011;6592;47.484;9.726;2022-09-17T04:28:59;4.03;;;1.60;;
13051;SDS011;6592;47.484;9.726;2022-09-17T04:31:29;2.25;;;1.42;;
13051;SDS011;6592;47.484;9.726;2022-09-17T04:33:57;4.25;;;1.50;;
13051;SDS011;6592;47.484;9.726;2022-09-17T04:36:25;4.40;;;1.35;;
13051;SDS011;6592;47.484;9.726;2022-09-17T04:38:53;3.80;;;1.40;;
13051;SDS011;6592;47.484;9.726;2022-09-17T04:41:22;4.43;;;1.40;;
13051;SDS011;6592;47.484;9.726;2022-09-17T04:43:50;4.18;;;1.63;;
13051;SDS011;6592;47.484;9.726;2022-09-17T04:46:18;2.45;;;1.58;;
13051;SDS011;6592;47.484;9.726;2022-09-17T04:48:48;2.83;;;1.60;;
13051;SDS011;6592;47.484;9.726;2022-09-17T04:51:16;3.15;;;1.60;;
13051;SDS011;6592;47.484;9.726;2022-09-17T04:53:44;5.00;;;1.83;;
13051;SDS011;6592;47.484;9.726;2022-09-17T04:56:12;3.22;;;1.77;;
13051;SDS011;6592;47.484;9.726;2022-09-17T04:58:41;4.38;;;1.83;;
13051;SDS011;6592;47.484;9.726;2022-09-17T05:01:09;4.53;;;2.08;;
13051;SDS011;6592;47.484;9.726;2022-09-17T05:03:39;4.68;;;2.10;;
13051;SDS011;6592;47.484;9.726;2022-09-17T05:06:08;4.13;;;1.73;;
13051;SDS011;6592;47.484;9.726;2022-09-17T05:08:37;2.88;;;1.52;;
13051;SDS011;6592;47.484;9.726;2022-09-17T05:11:05;6.75;;;2.88;;
13051;SDS011;6592;47.484;9.726;2022-09-17T05:13:33;3.22;;;1.30;;
13051;SDS011;6592;47.484;9.726;2022-09-17T05:16:01;5.38;;;1.40;;
13051;SDS011;6592;47.484;9.726;2022-09-17T05:18:30;4.63;;;1.40;;
13051;SDS011;6592;47.484;9.726;2022-09-17T05:20:58;4.00;;;2.00;;
13051;SDS011;6592;47.484;9.726;2022-09-17T05:23:27;3.33;;;1.55;;
13051;SDS011;6592;47.484;9.726;2022-09-17T05:25:56;13.48;;;8.95;;
13051;SDS011;6592;47.484;9.726;2022-09-17T05:28:25;6.82;;;2.35;;
13051;SDS011;6592;47.484;9.726;2022-09-17T05:30:56;9.95;;;5.13;;
13051;SDS011;6592;47.484;9.726;2022-09-17T05:33:25;7.28;;;3.60;;
13051;SDS011;6592;47.484;9.726;2022-09-17T05:35:54;8.23;;;4.75;;
13051;SDS011;6592;47.484;9.726;2022-09-17T05:38:22;3.00;;;1.95;;
13051;SDS011;6592;47.484;9.726;2022-09-17T05:40:52;4.82;;;1.80;;
13051;SDS011;6592;47.484;9.726;2022-09-17T05:43:20;6.70;;;4.97;;
13051;SDS011;6592;47.484;9.726;2022-09-17T05:45:49;7.80;;;3.40;;
13051;SDS011;6592;47.484;9.726;2022-09-17T05:48:19;4.10;;;2.30;;
13051;SDS011;6592;47.484;9.726;2022-09-17T05:50:47;5.70;;;2.28;;
13051;SDS011;6592;47.484;9.726;2022-09-17T05:53:16;4.63;;;2.72;;
13051;SDS011;6592;47.484;9.726;2022-09-17T05:55:44;5.45;;;2.60;;
13051;SDS011;6592;47.484;9.726;2022-09-17T05:58:14;7.78;;;3.20;;
13051;SDS011;6592;47.484;9.726;2022-09-17T06:00:44;8.35;;;4.78;;
13051;SDS011;6592;47.484;9.726;2022-09-17T06:03:15;6.50;;;2.65;;
13051;SDS011;6592;47.484;9.726;2022-09-17T06:05:51;16.40;;;6.57;;
13051;SDS011;6592;47.484;9.726;2022-09-17T06:08:20;12.25;;;5.03;;
13051;SDS011;6592;47.484;9.726;2022-09-17T06:10:49;7.10;;;3.28;;
13051;SDS011;6592;47.484;9.726;2022-09-17T06:13:19;8.55;;;3.20;;
13051;SDS011;6592;47.484;9.726;2022-09-17T06:15:48;7.25;;;2.83;;
13051;SDS011;6592;47.484;9.726;2022-09-17T06:18:17;5.85;;;2.70;;
13051;SDS011;6592;47.484;9.726;2022-09-17T06:20:51;6.63;;;2.85;;
13051;SDS011;6592;47.484;9.726;2022-09-17T06:23:20;6.88;;;2.60;;
13051;SDS011;6592;47.484;9.726;2022-09-17T06:25:50;3.80;;;1.95;;
13051;SDS011;6592;47.484;9.726;2022-09-17T06:28:20;6.53;;;1.83;;
13051;SDS011;6592;47.484;9.726;2022-09-17T06:30:49;3.33;;;1.80;;
13051;SDS011;6592;47.484;9.726;2022-09-17T06:33:19;4.43;;;1.80;;
13051;SDS011;6592;47.484;9.726;2022-09-17T06:35:48;4.75;;;2.00;;
13051;SDS011;6592;47.484;9.726;2022-09-17T06:38:22;3.25;;;1.83;;
13051;SDS011;6592;47.484;9.726;2022-09-17T06:40:50;5.90;;;2.72;;
13051;SDS011;6592;47.484;9.726;2022-09-17T06:43:19;4.95;;;2.67;;
13051;SDS011;6592;47.484;9.726;2022-09-17T06:45:52;5.27;;;2.60;;
13051;SDS011;6592;47.484;9.726;2022-09-17T06:48:21;5.05;;;2.38;;
13051;SDS011;6592;47.484;9.726;2022-09-17T06:50:52;7.07;;;2.35;;
13051;SDS011;6592;47.484;9.726;2022-09-17T06:53:21;3.75;;;2.28;;
13051;SDS011;6592;47.484;9.726;2022-09-17T06:55:50;3.88;;;2.08;;
13051;SDS011;6592;47.484;9.726;2022-09-17T06:58:18;5.97;;;2.33;;
13051;SDS011;6592;47.484;9.726;2022-09-17T07:00:48;6.38;;;2.47;;
13051;SDS011;6592;47.484;9.726;2022-09-17T07:03:16;4.53;;;2.72;;
13051;SDS011;6592;47.484;9.726;2022-09-17T07:05:48;5.68;;;2.60;;
13051;SDS011;6592;47.484;9.726;2022-09-17T07:08:16;5.00;;;2.50;;
13051;SDS011;6592;47.484;9.726;2022-09-17T07:10:45;4.70;;;2.38;;
13051;SDS011;6592;47.484;9.726;2022-09-17T07:13:13;4.20;;;2.60;;
13051;SDS011;6592;47.484;9.726;2022-09-17T07:15:43;3.78;;;1.95;;
13051;SDS011;6592;47.484;9.726;2022-09-17T07:18:19;5.22;;;2.10;;
13051;SDS011;6592;47.484;9.726;2022-09-17T07:20:51;2.97;;;1.45;;
13051;SDS011;6592;47.484;9.726;2022-09-17T07:23:21;6.28;;;2.35;;
13051;SDS011;6592;47.484;9.726;2022-09-17T07:25:50;4.88;;;1.80;;
13051;SDS011;6592;47.484;9.726;2022-09-17T07:28:19;3.35;;;1.40;;
13051;SDS011;6592;47.484;9.726;2022-09-17T07:30:49;5.80;;;1.88;;
13051;SDS011;6592;47.484;9.726;2022-09-17T07:33:19;6.47;;;2.30;;
13051;SDS011;6592;47.484;9.726;2022-09-17T07:35:53;4.22;;;1.77;;
13051;SDS011;6592;47.484;9.726;2022-09-17T07:38:22;3.85;;;1.88;;
13051;SDS011;6592;47.484;9.726;2022-09-17T07:40:54;7.65;;;2.88;;
13051;SDS011;6592;47.484;9.726;2022-09-17T07:43:23;5.55;;;2.03;;
13051;SDS011;6592;47.484;9.726;2022-09-17T07:45:55;5.88;;;2.38;;
13051;SDS011;6592;47.484;9.726;2022-09-17T07:48:23;5.00;;;2.15;;
13051;SDS011;6592;47.484;9.726;2022-09-17T07:50:52;3.92;;;2.13;;
13051;SDS011;6592;47.484;9.726;2022-09-17T07:53:20;5.13;;;2.53;;
13051;SDS011;6592;47.484;9.726;2022-09-17T07:55:52;8.75;;;2.60;;
13051;SDS011;6592;47.484;9.726;2022-09-17T07:58:21;6.03;;;2.25;;
13051;SDS011;6592;47.484;9.726;2022-09-17T08:00:50;3.05;;;1.60;;
13051;SDS011;6592;47.484;9.726;2022-09-17T08:03:19;3.17;;;0.75;;
13051;SDS011;6592;47.484;9.726;2022-09-17T08:05:48;2.15;;;0.80;;
13051;SDS011;6592;47.484;9.726;2022-09-17T08:08:16;1.70;;;0.80;;
13051;SDS011;6592;47.484;9.726;2022-09-17T08:10:46;4.13;;;1.20;;
13051;SDS011;6592;47.484;9.726;2022-09-17T08:13:14;5.07;;;1.23;;
13051;SDS011;6592;47.484;9.726;2022-09-17T08:15:43;4.05;;;1.20;;
13051;SDS011;6592;47.484;9.726;2022-09-17T08:18:14;6.00;;;3.95;;
13051;SDS011;6592;47.484;9.726;2022-09-17T08:20:45;4.00;;;1.85;;
13051;SDS011;6592;47.484;9.726;2022-09-17T08:23:14;3.00;;;1.50;;
13051;SDS011;6592;47.484;9.726;2022-09-17T08:25:43;3.97;;;1.25;;
13051;SDS011;6592;47.484;9.726;2022-09-17T08:28:17;4.18;;;1.60;;
13051;SDS011;6592;47.484;9.726;2022-09-17T08:30:46;6.45;;;2.50;;
13051;SDS011;6592;47.484;9.726;2022-09-17T08:33:15;10.13;;;2.60;;
13051;SDS011;6592;47.484;9.726;2022-09-17T08:35:51;7.72;;;2.95;;
13051;SDS011;6592;47.484;9.726;2022-09-17T08:38:19;6.45;;;2.58;;
13051;SDS011;6592;47.484;9.726;2022-09-17T08:40:51;5.90;;;2.80;;
13051;SDS011;6592;47.484;9.726;2022-09-17T08:43:28;7.45;;;3.08;;
13051;SDS011;6592;47.484;9.726;2022-09-17T08:46:00;6.97;;;2.50;;
13051;SDS011;6592;47.484;9.726;2022-09-17T08:48:30;6.70;;;3.00;;
13051;SDS011;6592;47.484;9.726;2022-09-17T08:51:10;5.43;;;2.50;;
13051;SDS011;6592;47.484;9.726;2022-09-17T08:53:54;5.63;;;2.83;;
13051;SDS011;6592;47.484;9.726;2022-09-17T08:56:29;6.90;;;2.63;;
13051;SDS011;6592;47.484;9.726;2022-09-17T08:59:07;3.85;;;2.10;;
13051;SDS011;6592;47.484;9.726;2022-09-17T09:01:49;6.05;;;2.60;;
13051;SDS011;6592;47.484;9.726;2022-09-17T09:07:26;7.68;;;3.97;;
13051;SDS011;6592;47.484;9.726;2022-09-17T09:10:03;5.28;;;2.53;;
13051;SDS011;6592;47.484;9.726;2022-09-17T09:12:42;6.05;;;2.97;;
13051;SDS011;6592;47.484;9.726;2022-09-17T09:18:10;7.53;;;3.90;;
13051;SDS011;6592;47.484;9.726;2022-09-17T09:20:47;7.43;;;3.22;;
13051;SDS011;6592;47.484;9.726;2022-09-17T09:23:27;7.30;;;3.60;;
13051;SDS011;6592;47.484;9.726;2022-09-17T09:26:03;7.30;;;3.65;;
13051;SDS011;6592;47.484;9.726;2022-09-17T09:28:47;6.63;;;3.15;;
13051;SDS011;6592;47.484;9.726;2022-09-17T09:31:33;7.60;;;3.13;;
13051;SDS011;6592;47.484;9.726;2022-09-17T09:34:24;5.10;;;2.03;;
13051;SDS011;6592;47.484;9.726;2022-09-17T09:36:57;5.10;;;1.85;;
13051;SDS011;6592;47.484;9.726;2022-09-17T09:39:41;5.45;;;2.30;;
13051;SDS011;6592;47.484;9.726;2022-09-17T09:42:13;6.97;;;2.67;;
13051;SDS011;6592;47.484;9.726;2022-09-17T09:44:47;7.18;;;2.50;;
13051;SDS011;6592;47.484;9.726;2022-09-17T09:47:28;4.65;;;2.00;;
13051;SDS011;6592;47.484;9.726;2022-09-17T09:50:08;5.53;;;2.00;;
13051;SDS011;6592;47.484;9.726;2022-09-17T09:52:50;5.72;;;2.10;;
13051;SDS011;6592;47.484;9.726;2022-09-17T09:58:23;4.88;;;1.95;;
13051;SDS011;6592;47.484;9.726;2022-09-17T10:00:58;5.40;;;1.80;;
13051;SDS011;6592;47.484;9.726;2022-09-17T10:03:27;2.85;;;1.67;;
13051;SDS011;6592;47.484;9.726;2022-09-17T10:05:57;2.80;;;1.40;;
13051;SDS011;6592;47.484;9.726;2022-09-17T10:08:28;3.17;;;1.42;;
13051;SDS011;6592;47.484;9.726;2022-09-17T10:11:00;4.35;;;2.08;;
13051;SDS011;6592;47.484;9.726;2022-09-17T10:13:31;14.02;;;6.55;;
13051;SDS011;6592;47.484;9.726;2022-09-17T10:16:14;11.82;;;5.43;;
13051;SDS011;6592;47.484;9.726;2022-09-17T10:18:44;3.90;;;1.58;;
13051;SDS011;6592;47.484;9.726;2022-09-17T10:21:20;12.00;;;8.45;;
13051;SDS011;6592;47.484;9.726;2022-09-17T10:23:49;6.38;;;3.90;;
13051;SDS011;6592;47.484;9.726;2022-09-17T10:26:20;3.35;;;1.92;;
13051;SDS011;6592;47.484;9.726;2022-09-17T10:28:50;2.83;;;1.60;;
13051;SDS011;6592;47.484;9.726;2022-09-17T10:31:22;3.35;;;1.30;;
13051;SDS011;6592;47.484;9.726;2022-09-17T10:34:00;2.70;;;1.20;;
13051;SDS011;6592;47.484;9.726;2022-09-17T10:36:39;2.67;;;1.27;;
13051;SDS011;6592;47.484;9.726;2022-09-17T10:39:27;4.47;;;1.60;;
13051;SDS011;6592;47.484;9.726;2022-09-17T10:41:59;2.58;;;1.30;;
13051;SDS011;6592;47.484;9.726;2022-09-17T10:44:29;4.22;;;1.60;;
13051;SDS011;6592;47.484;9.726;2022-09-17T10:47:02;4.05;;;0.90;;
13051;SDS011;6592;47.484;9.726;2022-09-17T10:49:35;2.83;;;1.13;;
13051;SDS011;6592;47.484;9.726;2022-09-17T10:52:10;3.35;;;1.40;;
13051;SDS011;6592;47.484;9.726;2022-09-17T10:55:00;2.88;;;1.25;;
13051;SDS011;6592;47.484;9.726;2022-09-17T10:57:51;2.72;;;1.27;;
13051;SDS011;6592;47.484;9.726;2022-09-17T11:00:37;4.68;;;1.50;;
13051;SDS011;6592;47.484;9.726;2022-09-17T11:06:24;2.85;;;1.15;;
13051;SDS011;6592;47.484;9.726;2022-09-17T11:09:31;4.68;;;1.70;;
13051;SDS011;6592;47.484;9.726;2022-09-17T11:12:16;3.58;;;1.70;;
13051;SDS011;6592;47.484;9.726;2022-09-17T11:14:58;3.47;;;1.63;;
13051;SDS011;6592;47.484;9.726;2022-09-17T11:17:45;2.78;;;1.50;;
13051;SDS011;6592;47.484;9.726;2022-09-17T11:20:28;3.28;;;1.23;;
13051;SDS011;6592;47.484;9.726;2022-09-17T11:23:20;2.83;;;1.70;;
13051;SDS011;6592;47.484;9.726;2022-09-17T11:25:58;3.70;;;2.00;;
13051;SDS011;6592;47.484;9.726;2022-09-17T11:28:35;4.63;;;1.60;;
13051;SDS011;6592;47.484;9.726;2022-09-17T11:31:20;3.95;;;1.20;;
13051;SDS011;6592;47.484;9.726;2022-09-17T11:34:08;3.25;;;1.13;;
13051;SDS011;6592;47.484;9.726;2022-09-17T11:36:57;3.30;;;1.20;;
13051;SDS011;6592;47.484;9.726;2022-09-17T11:39:33;4.22;;;1.20;;
13051;SDS011;6592;47.484;9.726;2022-09-17T11:42:07;2.10;;;1.05;;
13051;SDS011;6592;47.484;9.726;2022-09-17T11:44:42;2.75;;;1.30;;
13051;SDS011;6592;47.484;9.726;2022-09-17T11:47:17;2.47;;;1.20;;
13051;SDS011;6592;47.484;9.726;2022-09-17T11:49:49;3.40;;;1.27;;
13051;SDS011;6592;47.484;9.726;2022-09-17T11:52:23;5.53;;;1.80;;
13051;SDS011;6592;47.484;9.726;2022-09-17T11:54:58;5.78;;;1.80;;
13051;SDS011;6592;47.484;9.726;2022-09-17T11:57:38;3.55;;;2.03;;
13051;SDS011;6592;47.484;9.726;2022-09-17T12:00:12;4.40;;;1.80;;
13051;SDS011;6592;47.484;9.726;2022-09-17T12:02:46;3.58;;;1.70;;
13051;SDS011;6592;47.484;9.726;2022-09-17T12:05:20;3.45;;;2.08;;
13051;SDS011;6592;47.484;9.726;2022-09-17T12:07:53;3.63;;;1.70;;
13051;SDS011;6592;47.484;9.726;2022-09-17T12:10:35;3.53;;;1.58;;
13051;SDS011;6592;47.484;9.726;2022-09-17T12:13:16;4.45;;;1.80;;
13051;SDS011;6592;47.484;9.726;2022-09-17T12:15:56;5.07;;;1.70;;
13051;SDS011;6592;47.484;9.726;2022-09-17T12:18:35;5.82;;;1.40;;
13051;SDS011;6592;47.484;9.726;2022-09-17T12:21:14;3.00;;;1.27;;
13051;SDS011;6592;47.484;9.726;2022-09-17T12:23:47;2.78;;;1.30;;
13051;SDS011;6592;47.484;9.726;2022-09-17T12:26:22;3.85;;;1.20;;
13051;SDS011;6592;47.484;9.726;2022-09-17T12:29:00;4.20;;;1.20;;
13051;SDS011;6592;47.484;9.726;2022-09-17T12:31:39;3.72;;;1.30;;
13051;SDS011;6592;47.484;9.726;2022-09-17T12:34:21;4.32;;;1.17;;
13051;SDS011;6592;47.484;9.726;2022-09-17T12:37:02;1.92;;;0.90;;
13051;SDS011;6592;47.484;9.726;2022-09-17T12:42:40;2.28;;;0.90;;
13051;SDS011;6592;47.484;9.726;2022-09-17T12:45:19;2.42;;;0.90;;
13051;SDS011;6592;47.484;9.726;2022-09-17T12:50:57;4.22;;;1.83;;
13051;SDS011;6592;47.484;9.726;2022-09-17T12:53:34;2.40;;;1.20;;
13051;SDS011;6592;47.484;9.726;2022-09-17T12:56:09;2.17;;;0.90;;
13051;SDS011;6592;47.484;9.726;2022-09-17T13:01:46;2.85;;;1.48;;
13051;SDS011;6592;47.484;9.726;2022-09-17T13:04:23;3.75;;;1.85;;
13051;SDS011;6592;47.484;9.726;2022-09-17T13:07:41;3.95;;;1.80;;
13051;SDS011;6592;47.484;9.726;2022-09-17T13:10:37;4.38;;;1.65;;
13051;SDS011;6592;47.484;9.726;2022-09-17T13:13:17;4.10;;;1.67;;
13051;SDS011;6592;47.484;9.726;2022-09-17T13:15:58;2.97;;;1.58;;
13051;SDS011;6592;47.484;9.726;2022-09-17T13:18:41;4.68;;;1.80;;
13051;SDS011;6592;47.484;9.726;2022-09-17T13:21:39;3.50;;;1.63;;
13051;SDS011;6592;47.484;9.726;2022-09-17T13:24:16;4.88;;;2.10;;
13051;SDS011;6592;47.484;9.726;2022-09-17T13:26:46;4.97;;;2.35;;
13051;SDS011;6592;47.484;9.726;2022-09-17T13:38:14;2.60;;;1.30;;
13051;SDS011;6592;47.484;9.726;2022-09-17T13:40:50;2.80;;;1.35;;
13051;SDS011;6592;47.484;9.726;2022-09-17T13:43:41;3.03;;;1.30;;
13051;SDS011;6592;47.484;9.726;2022-09-17T13:46:13;2.95;;;1.25;;
13051;SDS011;6592;47.484;9.726;2022-09-17T13:48:50;2.83;;;1.30;;
13051;SDS011;6592;47.484;9.726;2022-09-17T13:51:41;3.17;;;1.50;;
13051;SDS011;6592;47.484;9.726;2022-09-17T13:54:20;3.03;;;1.40;;
13051;SDS011;6592;47.484;9.726;2022-09-17T13:57:05;2.42;;;1.40;;
13051;SDS011;6592;47.484;9.726;2022-09-17T13:59:50;2.50;;;1.02;;
13051;SDS011;6592;47.484;9.726;2022-09-17T14:02:27;2.08;;;0.80;;
13051;SDS011;6592;47.484;9.726;2022-09-17T14:08:10;1.85;;;0.90;;
13051;SDS011;6592;47.484;9.726;2022-09-17T14:10:41;3.55;;;1.40;;
13051;SDS011;6592;47.484;9.726;2022-09-17T14:13:23;3.47;;;1.45;;
13051;SDS011;6592;47.484;9.726;2022-09-17T14:15:55;1.77;;;0.93;;
13051;SDS011;6592;47.484;9.726;2022-09-17T14:18:37;2.05;;;0.80;;
13051;SDS011;6592;47.484;9.726;2022-09-17T14:21:13;2.05;;;0.90;;
13051;SDS011;6592;47.484;9.726;2022-09-17T14:23:51;2.00;;;0.60;;
13051;SDS011;6592;47.484;9.726;2022-09-17T14:26:28;2.60;;;0.75;;
13051;SDS011;6592;47.484;9.726;2022-09-17T14:29:12;1.52;;;0.70;;
13051;SDS011;6592;47.484;9.726;2022-09-17T14:31:55;2.00;;;0.70;;
13051;SDS011;6592;47.484;9.726;2022-09-17T14:34:24;1.42;;;0.47;;
13051;SDS011;6592;47.484;9.726;2022-09-17T14:36:53;1.67;;;0.40;;
13051;SDS011;6592;47.484;9.726;2022-09-17T14:39:23;1.58;;;0.60;;
13051;SDS011;6592;47.484;9.726;2022-09-17T14:41:54;2.10;;;0.50;;
13051;SDS011;6592;47.484;9.726;2022-09-17T14:44:24;0.70;;;0.40;;
13051;SDS011;6592;47.484;9.726;2022-09-17T14:46:59;0.93;;;0.40;;
13051;SDS011;6592;47.484;9.726;2022-09-17T14:49:31;2.03;;;0.52;;
13051;SDS011;6592;47.484;9.726;2022-09-17T14:52:01;2.38;;;0.30;;
13051;SDS011;6592;47.484;9.726;2022-09-17T14:54:45;2.22;;;0.57;;
13051;SDS011;6592;47.484;9.726;2022-09-17T14:57:17;1.30;;;0.65;;
13051;SDS011;6592;47.484;9.726;2022-09-17T14:59:53;2.35;;;0.70;;
13051;SDS011;6592;47.484;9.726;2022-09-17T15:02:30;2.75;;;0.98;;
13051;SDS011;6592;47.484;9.726;2022-09-17T15:05:02;2.55;;;1.00;;
13051;SDS011;6592;47.484;9.726;2022-09-17T15:07:43;2.72;;;0.80;;
13051;SDS011;6592;47.484;9.726;2022-09-17T15:10:12;1.33;;;0.60;;
13051;SDS011;6592;47.484;9.726;2022-09-17T15:12:42;1.38;;;0.60;;
13051;SDS011;6592;47.484;9.726;2022-09-17T15:15:17;2.42;;;0.85;;
13051;SDS011;6592;47.484;9.726;2022-09-17T15:17:47;2.42;;;0.90;;
13051;SDS011;6592;47.484;9.726;2022-09-17T15:20:17;1.83;;;0.90;;
13051;SDS011;6592;47.484;9.726;2022-09-17T15:22:49;2.17;;;1.10;;
13051;SDS011;6592;47.484;9.726;2022-09-17T15:25:23;2.38;;;0.90;;
13051;SDS011;6592;47.484;9.726;2022-09-17T15:27:56;2.22;;;1.10;;
13051;SDS011;6592;47.484;9.726;2022-09-17T15:30:28;3.42;;;1.20;;
13051;SDS011;6592;47.484;9.726;2022-09-17T15:32:57;4.15;;;1.42;;
13051;SDS011;6592;47.484;9.726;2022-09-17T15:35:27;2.15;;;1.05;;
13051;SDS011;6592;47.484;9.726;2022-09-17T15:37:57;2.47;;;1.10;;
13051;SDS011;6592;47.484;9.726;2022-09-17T15:40:47;2.20;;;1.20;;
13051;SDS011;6592;47.484;9.726;2022-09-17T15:43:16;2.60;;;1.25;;
13051;SDS011;6592;47.484;9.726;2022-09-17T15:45:53;3.20;;;1.20;;
13051;SDS011;6592;47.484;9.726;2022-09-17T15:48:32;3.03;;;1.20;;
13051;SDS011;6592;47.484;9.726;2022-09-17T15:51:03;3.17;;;1.85;;
13051;SDS011;6592;47.484;9.726;2022-09-17T15:53:33;3.55;;;2.05;;
13051;SDS011;6592;47.484;9.726;2022-09-17T15:56:03;4.75;;;2.28;;
13051;SDS011;6592;47.484;9.726;2022-09-17T15:58:50;2.83;;;1.30;;
13051;SDS011;6592;47.484;9.726;2022-09-17T16:04:19;2.40;;;0.82;;
13051;SDS011;6592;47.484;9.726;2022-09-17T16:06:56;2.45;;;0.80;;
13051;SDS011;6592;47.484;9.726;2022-09-17T16:09:42;2.78;;;0.90;;
13051;SDS011;6592;47.484;9.726;2022-09-17T16:12:15;2.15;;;0.85;;
13051;SDS011;6592;47.484;9.726;2022-09-17T16:14:45;1.60;;;0.82;;
13051;SDS011;6592;47.484;9.726;2022-09-17T16:17:32;2.42;;;1.10;;
13051;SDS011;6592;47.484;9.726;2022-09-17T16:20:12;4.38;;;1.20;;
13051;SDS011;6592;47.484;9.726;2022-09-17T16:22:43;2.05;;;1.08;;